Time;durP1;ratioP1;P1;durP2;ratioP2;P2;SDS_P1;SDS_P2;PMS_P1;PMS_P2;Temp;Humidity;BMP_temperature;BMP_pressure;BME280_temperature;BME280_humidity;BME280_pressure;Samples;Min_cycle;Max_cycle;Signal;HPM_P1;HPM_P2
2023/11/07 00:02:03;;;;;;;1.57;1.23;;;14.30;59.60;;;;;;5032552;28;20203;-52
2023/11/07 00:04:28;;;;;;;1.13;1.03;;;14.20;60.10;;;;;;5034498;28;20420;-54
2023/11/07 00:06:54;;;;;;;1.50;0.93;;;14.20;59.40;;;;;;5039500;28;20185;-53
2023/11/07 00:09:19;;;;;;;1.23;1.13;;;14.20;59.20;;;;;;5026040;28;20232;-56
2023/11/07 00:11:45;;;;;;;3.27;1.00;;;14.20;59.00;;;;;;5026374;28;20584;-52
2023/11/07 00:14:12;;;;;;;0.83;0.83;;;14.00;59.00;;;;;;5032183;28;20181;-54
2023/11/07 00:16:39;;;;;;;1.20;1.10;;;14.00;59.30;;;;;;5028176;28;20466;-57
2023/11/07 00:19:05;;;;;;;1.23;1.10;;;13.80;59.10;;;;;;5028653;28;20481;-53
2023/11/07 00:21:31;;;;;;;2.40;0.90;;;13.70;59.60;;;;;;5030034;28;20472;-52
2023/11/07 00:23:56;;;;;;;1.27;1.00;;;13.70;59.80;;;;;;5029657;28;20486;-56
2023/11/07 00:26:22;;;;;;;1.20;0.97;;;13.80;59.70;;;;;;5029773;28;20181;-53
2023/11/07 00:28:48;;;;;;;1.30;1.20;;;13.70;59.10;;;;;;5030875;28;20209;-54
2023/11/07 00:31:14;;;;;;;1.00;0.93;;;13.60;59.60;;;;;;5024187;28;20243;-52
2023/11/07 00:33:39;;;;;;;1.07;1.00;;;13.80;59.60;;;;;;5024469;28;21251;-56
2023/11/07 00:36:05;;;;;;;1.33;0.87;;;13.90;59.30;;;;;;5029524;28;20193;-52
2023/11/07 00:38:31;;;;;;;3.20;1.10;;;13.50;59.40;;;;;;5031947;28;20228;-56
2023/11/07 00:40:57;;;;;;;1.20;1.00;;;13.30;60.00;;;;;;5035235;28;20439;-53
2023/11/07 00:43:22;;;;;;;1.93;0.80;;;13.40;59.90;;;;;;5035330;28;20185;-56
2023/11/07 00:45:48;;;;;;;5.80;1.00;;;13.50;59.80;;;;;;5024901;28;20204;-55
2023/11/07 00:48:13;;;;;;;1.77;1.00;;;13.50;59.50;;;;;;5024736;28;20189;-55
2023/11/07 00:50:39;;;;;;;4.30;1.00;;;13.60;59.50;;;;;;5030187;28;20212;-54
2023/11/07 00:53:04;;;;;;;1.20;1.10;;;13.80;59.30;;;;;;5024896;28;20216;-57
2023/11/07 00:55:30;;;;;;;1.07;0.97;;;13.70;58.90;;;;;;5025266;28;20691;-53
2023/11/07 00:57:55;;;;;;;1.20;0.97;;;13.70;59.10;;;;;;5026354;28;20193;-52
2023/11/07 01:00:21;;;;;;;1.20;1.00;;;13.80;59.00;;;;;;5035981;28;20188;-53
2023/11/07 01:02:47;;;;;;;0.80;0.80;;;13.90;59.50;;;;;;5031783;28;20197;-52
2023/11/07 01:05:13;;;;;;;1.53;1.10;;;13.90;58.80;;;;;;5044542;28;20680;-51
2023/11/07 01:07:39;;;;;;;3.23;1.00;;;14.00;58.80;;;;;;5034002;28;20451;-51
2023/11/07 01:10:06;;;;;;;1.90;1.20;;;14.00;58.80;;;;;;5025607;28;20867;-54
2023/11/07 01:12:32;;;;;;;2.90;0.90;;;14.00;58.60;;;;;;5030153;28;20514;-52
2023/11/07 01:14:57;;;;;;;1.63;1.00;;;14.10;58.40;;;;;;5034531;28;20460;-51
2023/11/07 01:17:23;;;;;;;1.57;0.90;;;14.10;58.10;;;;;;5028517;28;20272;-53
2023/11/07 01:19:49;;;;;;;1.73;1.10;;;14.00;58.50;;;;;;5028989;28;20217;-51
2023/11/07 01:22:15;;;;;;;1.00;0.83;;;14.10;58.10;;;;;;5026444;28;20200;-52
2023/11/07 01:24:41;;;;;;;2.20;0.90;;;14.00;57.70;;;;;;5024884;28;20185;-52
2023/11/07 01:27:07;;;;;;;1.47;0.90;;;14.10;57.70;;;;;;5027374;28;20181;-51
2023/11/07 01:29:33;;;;;;;1.83;0.90;;;14.00;57.50;;;;;;5028283;28;20564;-51
2023/11/07 01:31:58;;;;;;;2.73;1.00;;;14.10;57.60;;;;;;5028356;28;21133;-52
2023/11/07 01:34:24;;;;;;;1.67;0.87;;;14.10;57.50;;;;;;5030168;28;20196;-51
2023/11/07 01:36:50;;;;;;;1.33;0.90;;;14.10;57.40;;;;;;5029393;28;20227;-51
2023/11/07 01:39:15;;;;;;;1.43;1.13;;;14.20;57.40;;;;;;5042215;28;20822;-52
2023/11/07 01:41:42;;;;;;;0.80;0.80;;;14.00;57.40;;;;;;5030755;28;20444;-50
2023/11/07 01:44:07;;;;;;;1.00;0.90;;;14.00;57.40;;;;;;5036494;28;20569;-51
2023/11/07 01:46:33;;;;;;;2.50;1.20;;;14.00;57.40;;;;;;5032545;28;20440;-53
2023/11/07 01:48:59;;;;;;;1.37;1.10;;;14.00;57.50;;;;;;5024586;28;20859;-53
2023/11/07 01:51:25;;;;;;;1.57;1.20;;;13.90;57.50;;;;;;5024635;28;20691;-52
2023/11/07 01:53:52;;;;;;;4.53;1.23;;;13.80;57.60;;;;;;5031552;28;20197;-53
2023/11/07 01:56:18;;;;;;;0.93;0.93;;;13.80;57.70;;;;;;5022674;28;20458;-55
2023/11/07 01:58:44;;;;;;;1.73;0.90;;;13.90;57.60;;;;;;5024365;28;20459;-51
2023/11/07 02:01:10;;;;;;;1.27;0.80;;;13.90;57.70;;;;;;5040504;28;20447;-52
2023/11/07 02:03:37;;;;;;;0.90;0.90;;;13.80;57.70;;;;;;5032468;28;20186;-51
2023/11/07 02:06:04;;;;;;;1.90;0.90;;;13.80;57.80;;;;;;5045330;28;20443;-53
2023/11/07 02:08:31;;;;;;;1.77;1.00;;;13.70;57.80;;;;;;5033270;28;20467;-51
2023/11/07 02:10:56;;;;;;;1.83;0.80;;;13.70;57.90;;;;;;5033405;28;20522;-53
2023/11/07 02:13:22;;;;;;;0.80;0.70;;;13.70;57.80;;;;;;5029597;28;20463;-49
2023/11/07 02:15:47;;;;;;;1.70;0.80;;;13.70;57.90;;;;;;5038114;28;20189;-51
2023/11/07 02:18:13;;;;;;;2.00;1.10;;;13.70;58.00;;;;;;5031030;28;20591;-51
2023/11/07 02:20:39;;;;;;;2.70;1.30;;;13.60;57.90;;;;;;5030506;28;20628;-51
2023/11/07 02:23:27;;;;;;;1.40;1.23;;;13.60;57.80;;;;;;5028663;28;20205;-51
2023/11/07 02:25:53;;;;;;;2.77;0.93;;;13.60;58.10;;;;;;5030534;28;20467;-52
2023/11/07 02:28:18;;;;;;;1.20;1.03;;;13.60;58.40;;;;;;5027516;28;21108;-51
2023/11/07 02:30:44;;;;;;;2.27;0.90;;;13.50;58.50;;;;;;5029838;28;20638;-52
2023/11/07 02:33:10;;;;;;;1.97;0.87;;;13.50;58.50;;;;;;5035397;28;20807;-50
2023/11/07 02:35:37;;;;;;;1.10;0.80;;;13.50;58.40;;;;;;5031078;28;20181;-50
2023/11/07 02:38:02;;;;;;;0.80;0.80;;;13.50;58.40;;;;;;5031417;28;20640;-51
2023/11/07 02:40:28;;;;;;;1.10;1.00;;;13.50;58.50;;;;;;5035005;28;20448;-52
2023/11/07 02:42:54;;;;;;;4.40;1.20;;;13.50;58.60;;;;;;5031047;28;21110;-50
2023/11/07 02:45:20;;;;;;;1.97;0.80;;;13.50;58.60;;;;;;5029548;28;20197;-52
2023/11/07 02:47:45;;;;;;;1.07;0.97;;;13.60;58.50;;;;;;5032158;28;20682;-52
2023/11/07 02:50:11;;;;;;;0.80;0.77;;;13.50;58.40;;;;;;5030534;28;20247;-52
2023/11/07 02:52:37;;;;;;;1.10;1.00;;;13.50;58.30;;;;;;5032778;28;20181;-51
2023/11/07 02:55:03;;;;;;;2.27;1.53;;;13.60;58.40;;;;;;5036498;28;20193;-53
2023/11/07 02:57:29;;;;;;;1.47;1.37;;;13.50;58.10;;;;;;5030041;28;20181;-52
2023/11/07 02:59:54;;;;;;;1.47;0.90;;;13.50;58.30;;;;;;5032182;28;20889;-50
2023/11/07 03:02:20;;;;;;;3.83;1.57;;;13.50;58.30;;;;;;5035300;28;20584;-53
2023/11/07 03:04:46;;;;;;;2.10;1.10;;;13.50;58.30;;;;;;5027833;28;23030;-50
2023/11/07 03:07:12;;;;;;;1.33;1.17;;;13.50;58.30;;;;;;5040568;28;20438;-54
2023/11/07 03:09:37;;;;;;;2.10;1.17;;;13.50;58.40;;;;;;5036575;28;20248;-51
2023/11/07 03:12:03;;;;;;;1.33;1.00;;;13.50;58.40;;;;;;5031262;28;20189;-53
2023/11/07 03:14:29;;;;;;;1.00;0.73;;;13.50;58.60;;;;;;5027957;28;20240;-55
2023/11/07 03:16:55;;;;;;;1.90;1.10;;;13.50;58.80;;;;;;5030198;28;20762;-51
2023/11/07 03:19:21;;;;;;;1.40;0.90;;;13.50;58.90;;;;;;5027290;28;20732;-53
2023/11/07 03:21:46;;;;;;;2.13;1.20;;;13.50;58.90;;;;;;5024780;28;20466;-51
2023/11/07 03:24:12;;;;;;;3.10;1.20;;;13.40;58.80;;;;;;5026665;28;20193;-52
2023/11/07 03:26:38;;;;;;;2.10;0.80;;;13.50;59.00;;;;;;5030997;28;20954;-52
2023/11/07 03:29:04;;;;;;;1.20;1.10;;;13.40;59.00;;;;;;5033825;28;20560;-51
2023/11/07 03:31:30;;;;;;;0.80;0.80;;;13.40;59.10;;;;;;5030263;28;20440;-51
2023/11/07 03:33:56;;;;;;;2.80;1.10;;;13.10;59.30;;;;;;5028207;28;20208;-52
2023/11/07 03:36:21;;;;;;;3.03;0.90;;;13.00;59.40;;;;;;5028885;28;20440;-53
2023/11/07 03:38:47;;;;;;;2.63;0.90;;;12.60;60.90;;;;;;5030097;28;20216;-52
2023/11/07 03:41:12;;;;;;;1.70;1.00;;;12.70;61.10;;;;;;5034585;28;20196;-52
2023/11/07 03:43:38;;;;;;;4.73;1.10;;;12.30;61.70;;;;;;5031365;28;20225;-55
2023/11/07 03:46:05;;;;;;;4.23;1.37;;;12.40;62.10;;;;;;5037081;28;20298;-52
2023/11/07 03:48:31;;;;;;;1.00;0.90;;;12.70;62.10;;;;;;5037889;28;20705;-50
2023/11/07 03:50:57;;;;;;;1.37;0.97;;;12.70;60.70;;;;;;5035687;28;20542;-50
2023/11/07 03:53:22;;;;;;;0.83;0.80;;;12.50;61.30;;;;;;5028249;28;20499;-53
2023/11/07 03:55:49;;;;;;;2.60;1.07;;;12.60;61.40;;;;;;5035186;28;20222;-51
2023/11/07 03:58:14;;;;;;;1.33;0.90;;;12.80;60.70;;;;;;5029430;28;20190;-50
2023/11/07 04:00:45;;;;;;;1.83;0.63;;;12.80;60.00;;;;;;5028401;28;20526;-52
2023/11/07 04:03:10;;;;;;;2.40;0.97;;;13.00;59.90;;;;;;5032619;28;20192;-51
2023/11/07 04:05:36;;;;;;;5.83;1.10;;;13.10;59.50;;;;;;5035909;28;20472;-50
2023/11/07 04:08:02;;;;;;;1.37;0.73;;;13.20;59.60;;;;;;5034297;28;20220;-55
2023/11/07 04:10:28;;;;;;;1.07;0.70;;;13.20;59.40;;;;;;5023187;28;20939;-54
2023/11/07 04:12:54;;;;;;;1.13;1.03;;;13.20;59.10;;;;;;5029408;28;20189;-52
2023/11/07 04:15:21;;;;;;;3.50;1.20;;;13.20;59.00;;;;;;5025262;28;20447;-49
2023/11/07 04:17:48;;;;;;;0.90;0.80;;;13.20;59.00;;;;;;5032137;28;20192;-53
2023/11/07 04:20:14;;;;;;;1.90;1.00;;;13.20;59.10;;;;;;5038672;28;21014;-50
2023/11/07 04:22:41;;;;;;;1.73;0.70;;;13.20;59.40;;;;;;5034099;28;20463;-53
2023/11/07 04:25:07;;;;;;;3.87;1.00;;;13.10;59.50;;;;;;5030317;28;20445;-51
2023/11/07 04:27:36;;;;;;;3.03;0.80;;;13.00;59.60;;;;;;5024371;28;20468;-51
2023/11/07 04:30:05;;;;;;;1.80;0.77;;;13.10;59.40;;;;;;5028618;28;20488;-50
2023/11/07 04:32:34;;;;;;;0.90;0.60;;;13.20;59.40;;;;;;5036299;28;20519;-52
2023/11/07 04:35:00;;;;;;;0.90;0.90;;;13.30;59.20;;;;;;5028004;28;21007;-51
2023/11/07 04:37:25;;;;;;;0.97;0.90;;;13.30;59.30;;;;;;5027729;28;20542;-52
2023/11/07 04:39:51;;;;;;;2.60;1.20;;;13.30;59.10;;;;;;5026755;28;20468;-51
2023/11/07 04:42:17;;;;;;;0.80;0.70;;;13.30;59.00;;;;;;5029618;28;20272;-52
2023/11/07 04:44:43;;;;;;;1.33;0.83;;;13.40;58.80;;;;;;5030668;28;20897;-52
2023/11/07 04:47:09;;;;;;;1.27;0.90;;;13.40;58.80;;;;;;5028938;28;20213;-54
2023/11/07 04:49:35;;;;;;;1.43;0.80;;;13.40;58.60;;;;;;5024461;28;20224;-54
2023/11/07 04:52:02;;;;;;;1.10;0.90;;;13.20;58.40;;;;;;5030289;28;20474;-56
2023/11/07 04:54:27;;;;;;;1.60;0.80;;;13.10;58.70;;;;;;5028898;28;20527;-53
2023/11/07 04:56:54;;;;;;;0.80;0.80;;;13.20;58.80;;;;;;5029275;28;20567;-50
2023/11/07 04:59:23;;;;;;;1.17;1.03;;;13.20;58.90;;;;;;5028680;28;20220;-52
2023/11/07 05:01:49;;;;;;;1.03;1.00;;;13.30;58.60;;;;;;5025999;28;20470;-51
2023/11/07 05:04:15;;;;;;;1.43;1.33;;;13.10;58.30;;;;;;5037762;28;20442;-54
2023/11/07 05:06:41;;;;;;;1.33;0.90;;;13.10;58.60;;;;;;5028808;28;20440;-57
2023/11/07 05:09:09;;;;;;;1.20;1.10;;;13.20;58.50;;;;;;5034713;28;20443;-54
2023/11/07 05:11:37;;;;;;;1.00;0.93;;;13.00;58.40;;;;;;5030955;28;20451;-51
2023/11/07 05:14:03;;;;;;;2.10;1.00;;;12.80;58.70;;;;;;5029114;28;20444;-55
2023/11/07 05:16:28;;;;;;;1.90;1.10;;;12.50;59.80;;;;;;5030175;28;20447;-53
2023/11/07 05:18:54;;;;;;;0.83;0.83;;;12.50;59.80;;;;;;5036389;28;20684;-54
2023/11/07 05:21:19;;;;;;;1.50;1.00;;;12.30;60.20;;;;;;5034181;28;20295;-56
2023/11/07 05:23:45;;;;;;;5.30;1.10;;;12.30;60.50;;;;;;5035978;28;20185;-52
2023/11/07 05:26:11;;;;;;;2.10;1.20;;;12.20;60.20;;;;;;5030260;28;20189;-52
2023/11/07 05:28:37;;;;;;;1.07;1.00;;;12.40;60.30;;;;;;5027091;28;20205;-53
2023/11/07 05:31:03;;;;;;;1.20;1.10;;;12.30;60.00;;;;;;5036302;28;20487;-53
2023/11/07 05:33:30;;;;;;;1.37;1.27;;;12.00;60.70;;;;;;5030133;28;21841;-51
2023/11/07 05:35:55;;;;;;;1.30;1.03;;;12.10;60.70;;;;;;5040468;28;20443;-55
2023/11/07 05:38:22;;;;;;;2.37;1.17;;;12.20;60.60;;;;;;5031092;28;20463;-55
2023/11/07 05:40:48;;;;;;;2.03;1.30;;;12.20;60.20;;;;;;5039624;28;20185;-53
2023/11/07 05:43:13;;;;;;;1.63;1.37;;;12.30;60.30;;;;;;5034664;28;20455;-53
2023/11/07 05:45:39;;;;;;;2.07;1.27;;;12.00;60.70;;;;;;5037390;28;20489;-55
2023/11/07 05:48:05;;;;;;;3.23;1.60;;;12.00;61.20;;;;;;5036334;28;20266;-53
2023/11/07 05:50:30;;;;;;;1.50;1.40;;;12.00;60.90;;;;;;5037687;28;20247;-54
2023/11/07 05:52:56;;;;;;;2.00;1.10;;;11.80;61.50;;;;;;5039101;28;20197;-54
2023/11/07 05:55:21;;;;;;;2.60;1.00;;;11.80;61.60;;;;;;5031443;28;20280;-53
2023/11/07 05:57:47;;;;;;;0.90;0.90;;;11.80;61.40;;;;;;5032761;28;20196;-53
2023/11/07 06:00:13;;;;;;;1.57;1.10;;;11.70;61.70;;;;;;5032597;28;20201;-51
2023/11/07 06:02:40;;;;;;;1.73;1.00;;;11.40;62.90;;;;;;5034148;28;21296;-55
2023/11/07 06:05:06;;;;;;;2.00;1.10;;;11.30;63.10;;;;;;5040983;28;20465;-51
2023/11/07 06:07:33;;;;;;;1.97;1.07;;;11.10;63.50;;;;;;5034417;28;20239;-56
2023/11/07 06:10:00;;;;;;;1.20;1.00;;;11.10;63.70;;;;;;5026584;28;21308;-50
2023/11/07 06:12:26;;;;;;;1.10;1.00;;;11.50;63.20;;;;;;5027132;28;20459;-56
2023/11/07 06:14:52;;;;;;;1.07;0.97;;;11.60;62.20;;;;;;5029804;28;20440;-56
2023/11/07 06:17:18;;;;;;;2.33;0.90;;;11.70;61.30;;;;;;5031753;28;20420;-52
2023/11/07 06:19:44;;;;;;;0.80;0.80;;;11.50;61.80;;;;;;5027272;28;20243;-51
2023/11/07 06:22:10;;;;;;;1.77;1.20;;;11.50;62.10;;;;;;5026102;28;20645;-52
2023/11/07 06:24:35;;;;;;;1.73;1.50;;;11.50;62.20;;;;;;5028680;28;20272;-53
2023/11/07 06:27:01;;;;;;;2.80;1.40;;;11.40;62.60;;;;;;5028190;28;20523;-56
2023/11/07 06:29:27;;;;;;;1.20;1.10;;;11.50;64.30;;;;;;5032053;28;20209;-51
2023/11/07 06:31:53;;;;;;;2.00;1.80;;;11.70;65.10;;;;;;5030096;28;20189;-56
2023/11/07 06:34:19;;;;;;;1.33;1.13;;;11.90;65.30;;;;;;5033449;28;20924;-52
2023/11/07 06:36:45;;;;;;;1.93;1.40;;;12.20;64.90;;;;;;5038837;28;20435;-53
2023/11/07 06:39:11;;;;;;;5.20;1.07;;;12.50;62.90;;;;;;5036853;28;20273;-56
2023/11/07 06:41:38;;;;;;;1.50;1.40;;;12.60;61.80;;;;;;5026807;28;20428;-50
2023/11/07 06:44:04;;;;;;;2.27;1.30;;;12.70;62.50;;;;;;5030121;28;20459;-51
2023/11/07 06:46:29;;;;;;;1.60;1.50;;;12.90;61.20;;;;;;5031018;28;20440;-51
2023/11/07 06:48:56;;;;;;;1.90;1.70;;;13.10;59.70;;;;;;5037972;28;20502;-50
2023/11/07 06:51:21;;;;;;;1.97;1.63;;;13.40;59.10;;;;;;5036665;28;20825;-55
2023/11/07 06:53:47;;;;;;;3.07;1.30;;;13.90;57.90;;;;;;5026215;28;20443;-53
2023/11/07 06:56:13;;;;;;;1.40;1.30;;;14.70;56.80;;;;;;5029632;28;20181;-55
2023/11/07 06:58:41;;;;;;;1.20;1.10;;;15.30;55.20;;;;;;5038038;28;20475;-53
2023/11/07 07:01:09;;;;;;;2.80;1.90;;;16.00;53.80;;;;;;5035335;28;20280;-53
2023/11/07 07:03:35;;;;;;;4.40;1.70;;;16.40;51.70;;;;;;5031718;28;20534;-54
2023/11/07 07:06:00;;;;;;;4.50;2.60;;;16.40;51.60;;;;;;5031630;28;20535;-56
2023/11/07 07:08:26;;;;;;;23.53;5.53;;;16.20;51.70;;;;;;5031348;28;20201;-51
2023/11/07 07:10:51;;;;;;;12.57;4.70;;;16.10;51.70;;;;;;5035692;28;20224;-52
2023/11/07 07:13:19;;;;;;;16.63;3.50;;;15.70;52.40;;;;;;5038511;28;20188;-54
2023/11/07 07:15:45;;;;;;;14.80;3.00;;;15.20;53.90;;;;;;5035159;28;20249;-55
2023/11/07 07:18:15;;;;;;;32.57;6.00;;;15.20;53.90;;;;;;5031442;28;20432;-55
2023/11/07 07:20:41;;;;;;;18.70;4.63;;;15.60;54.10;;;;;;5031018;28;20527;-55
2023/11/07 07:23:08;;;;;;;21.80;3.73;;;16.00;53.20;;;;;;5033523;28;20499;-53
2023/11/07 07:25:36;;;;;;;8.43;2.73;;;16.30;52.70;;;;;;5038153;28;20235;-53
2023/11/07 07:28:06;;;;;;;3.17;1.90;;;16.40;52.20;;;;;;5032044;28;20456;-52
2023/11/07 07:30:32;;;;;;;2.63;1.87;;;16.50;52.00;;;;;;5029878;28;20488;-54
2023/11/07 07:32:59;;;;;;;1.87;1.60;;;16.50;52.00;;;;;;5033886;28;20951;-54
2023/11/07 07:35:29;;;;;;;2.53;1.20;;;16.50;51.90;;;;;;5031049;28;20521;-55
2023/11/07 07:37:55;;;;;;;8.40;2.70;;;16.20;51.00;;;;;;5032204;28;20482;-52
2023/11/07 07:40:25;;;;;;;27.37;4.20;;;15.50;51.50;;;;;;5029879;28;20884;-51
2023/11/07 07:42:58;;;;;;;22.57;2.67;;;15.50;52.90;;;;;;5039907;28;20455;-54
2023/11/07 07:45:26;;;;;;;11.60;2.40;;;15.60;53.90;;;;;;5034322;28;20464;-54
2023/11/07 07:47:52;;;;;;;7.60;1.87;;;15.80;52.80;;;;;;5038443;28;20436;-53
2023/11/07 07:50:18;;;;;;;2.33;1.60;;;15.80;53.20;;;;;;5032540;28;20487;-54
2023/11/07 07:52:44;;;;;;;2.83;1.40;;;15.90;52.30;;;;;;5036847;28;20942;-56
2023/11/07 07:55:11;;;;;;;11.20;2.50;;;15.70;52.90;;;;;;5035385;28;20427;-53
2023/11/07 07:57:37;;;;;;;21.83;3.93;;;16.00;53.40;;;;;;5029078;28;20782;-55
2023/11/07 08:00:12;;;;;;;22.17;3.80;;;15.90;52.60;;;;;;5027453;28;20989;-54
2023/11/07 08:02:46;;;;;;;10.83;3.30;;;16.00;53.30;;;;;;5029270;28;20459;-53
2023/11/07 08:05:19;;;;;;;4.67;1.30;;;16.00;53.00;;;;;;5030056;28;20439;-52
2023/11/07 08:07:46;;;;;;;2.67;0.97;;;15.90;52.20;;;;;;5025213;28;20535;-52
2023/11/07 08:10:19;;;;;;;1.30;1.20;;;15.90;52.20;;;;;;5029339;28;20641;-51
2023/11/07 08:12:46;;;;;;;2.07;1.00;;;15.80;51.60;;;;;;5030576;28;20432;-53
2023/11/07 08:15:12;;;;;;;2.37;0.90;;;15.60;52.00;;;;;;5036025;28;20450;-51
2023/11/07 08:17:37;;;;;;;1.80;0.93;;;15.70;52.40;;;;;;5034903;28;20460;-55
2023/11/07 08:20:14;;;;;;;1.00;0.90;;;15.40;51.60;;;;;;5035428;28;21069;-52
2023/11/07 08:22:43;;;;;;;1.07;0.87;;;15.30;52.00;;;;;;5038978;28;20177;-52
2023/11/07 08:25:12;;;;;;;1.57;0.90;;;15.10;52.30;;;;;;5041573;28;20440;-50
2023/11/07 08:27:39;;;;;;;1.90;0.87;;;15.10;52.40;;;;;;5036618;28;20439;-52
2023/11/07 08:30:12;;;;;;;2.50;1.20;;;15.00;52.80;;;;;;5035173;28;20483;-52
2023/11/07 08:32:44;;;;;;;3.80;1.10;;;14.80;52.80;;;;;;5031811;28;20955;-51
2023/11/07 08:35:12;;;;;;;2.20;1.03;;;14.90;53.20;;;;;;5035393;28;20440;-50
2023/11/07 08:37:38;;;;;;;1.20;0.93;;;14.80;53.60;;;;;;5028601;28;20819;-52
2023/11/07 08:40:06;;;;;;;1.37;1.00;;;14.90;53.70;;;;;;5020059;28;20460;-52
2023/11/07 08:42:32;;;;;;;2.80;1.20;;;14.90;53.70;;;;;;5027190;28;20439;-49
2023/11/07 08:44:59;;;;;;;1.10;0.87;;;14.90;53.50;;;;;;5028250;28;20982;-53
2023/11/07 08:47:26;;;;;;;2.80;1.37;;;14.90;53.50;;;;;;5022177;28;20192;-51
2023/11/07 08:49:55;;;;;;;0.97;0.93;;;14.90;53.60;;;;;;5023244;28;20479;-53
2023/11/07 08:52:21;;;;;;;4.43;1.10;;;15.00;53.80;;;;;;5023405;28;20444;-50
2023/11/07 08:54:47;;;;;;;1.20;1.10;;;14.90;53.80;;;;;;5030328;28;20439;-55
2023/11/07 08:57:13;;;;;;;2.00;1.30;;;15.00;54.10;;;;;;5031017;28;20438;-57
2023/11/07 08:59:44;;;;;;;1.20;1.10;;;15.10;53.90;;;;;;5031312;28;20444;-53
2023/11/07 09:02:10;;;;;;;1.47;1.00;;;15.10;53.70;;;;;;5026105;28;20542;-51
2023/11/07 09:04:36;;;;;;;1.00;1.00;;;15.10;53.60;;;;;;5022627;28;20970;-52
2023/11/07 09:07:03;;;;;;;2.53;1.07;;;15.20;53.60;;;;;;5024205;28;20438;-56
2023/11/07 09:09:29;;;;;;;2.80;1.40;;;15.20;53.50;;;;;;5033012;28;20475;-52
2023/11/07 09:11:54;;;;;;;1.10;1.00;;;15.30;53.80;;;;;;5029417;28;20475;-54
2023/11/07 09:14:21;;;;;;;1.17;0.93;;;15.30;53.80;;;;;;5032807;28;20469;-53
2023/11/07 09:16:48;;;;;;;1.60;1.30;;;15.40;53.40;;;;;;5032224;28;20255;-49
2023/11/07 09:19:13;;;;;;;2.57;0.90;;;15.30;52.90;;;;;;5026528;28;20554;-49
2023/11/07 09:21:39;;;;;;;1.97;1.10;;;15.40;52.90;;;;;;5031967;28;20554;-51
2023/11/07 09:24:05;;;;;;;2.13;1.10;;;15.50;53.20;;;;;;5045212;28;20279;-52
2023/11/07 09:26:31;;;;;;;3.83;1.30;;;15.50;53.30;;;;;;5029863;28;20196;-52
2023/11/07 09:28:58;;;;;;;4.93;1.30;;;15.40;53.10;;;;;;5029379;28;20451;-55
2023/11/07 09:31:24;;;;;;;2.27;1.10;;;15.30;53.30;;;;;;5034913;28;20227;-53
2023/11/07 09:33:50;;;;;;;8.70;1.33;;;15.30;53.50;;;;;;5022605;28;20927;-48
2023/11/07 09:36:16;;;;;;;1.50;1.10;;;15.30;53.80;;;;;;5023634;28;20625;-52
2023/11/07 09:38:42;;;;;;;1.30;1.20;;;15.40;53.70;;;;;;5027230;28;20532;-51
2023/11/07 09:41:08;;;;;;;1.30;1.20;;;15.50;53.60;;;;;;5032549;28;20558;-50
2023/11/07 09:43:34;;;;;;;1.30;1.07;;;15.60;53.70;;;;;;5029301;28;20224;-49
2023/11/07 09:46:01;;;;;;;1.67;1.47;;;15.60;53.30;;;;;;5037814;28;20498;-49
2023/11/07 09:48:30;;;;;;;3.63;1.23;;;15.70;53.10;;;;;;5030298;28;20236;-53
2023/11/07 09:50:58;;;;;;;1.40;1.20;;;15.40;53.10;;;;;;5032822;28;20475;-50
2023/11/07 09:53:24;;;;;;;2.37;1.10;;;15.50;53.80;;;;;;5038819;28;20571;-51
2023/11/07 09:55:52;;;;;;;2.40;1.20;;;15.60;53.50;;;;;;5033667;28;20447;-51
2023/11/07 09:58:24;;;;;;;2.30;1.40;;;15.50;53.60;;;;;;5030848;28;20460;-50
2023/11/07 10:00:52;;;;;;;2.73;1.10;;;15.60;53.90;;;;;;5031258;28;20837;-52
2023/11/07 10:03:18;;;;;;;1.57;0.90;;;15.70;53.30;;;;;;5033841;28;20435;-49
2023/11/07 10:05:46;;;;;;;1.13;0.90;;;15.40;53.30;;;;;;5029595;28;20814;-52
2023/11/07 10:08:12;;;;;;;1.40;0.73;;;15.60;53.30;;;;;;5030966;28;20240;-51
2023/11/07 10:10:39;;;;;;;0.97;0.90;;;15.50;53.20;;;;;;5038718;28;20890;-51
2023/11/07 10:13:12;;;;;;;4.03;1.33;;;15.70;53.20;;;;;;5038137;28;20193;-52
2023/11/07 10:15:38;;;;;;;2.27;1.17;;;16.10;53.10;;;;;;5025826;28;20428;-50
2023/11/07 10:18:06;;;;;;;1.67;0.87;;;16.20;52.90;;;;;;5031607;28;20451;-51
2023/11/07 10:20:33;;;;;;;3.83;1.00;;;16.00;51.50;;;;;;5030503;28;20480;-51
2023/11/07 10:23:00;;;;;;;4.43;0.70;;;16.00;52.20;;;;;;5036340;28;20456;-52
2023/11/07 10:25:31;;;;;;;2.37;0.90;;;15.90;52.30;;;;;;5039147;28;20435;-52
2023/11/07 10:28:04;;;;;;;2.53;0.83;;;15.70;52.40;;;;;;5032916;28;20435;-52
2023/11/07 10:30:49;;;;;;;2.67;1.00;;;15.80;52.80;;;;;;5028012;28;20550;-50
2023/11/07 10:33:29;;;;;;;0.87;0.70;;;15.70;52.60;;;;;;5022958;28;20843;-51
2023/11/07 10:35:56;;;;;;;2.00;0.87;;;15.60;52.30;;;;;;5023432;28;20452;-51
2023/11/07 10:38:26;;;;;;;0.80;0.70;;;15.40;52.70;;;;;;5037468;28;20474;-50
2023/11/07 10:40:52;;;;;;;1.27;0.90;;;15.40;52.80;;;;;;5036211;28;20440;-53
2023/11/07 10:43:37;;;;;;;1.13;0.60;;;15.10;52.90;;;;;;5025822;28;20523;-54
2023/11/07 10:46:05;;;;;;;1.20;0.73;;;15.30;53.20;;;;;;5030820;28;20452;-52
2023/11/07 10:48:33;;;;;;;0.70;0.63;;;15.40;53.10;;;;;;5031358;28;20455;-52
2023/11/07 10:51:03;;;;;;;2.50;0.80;;;15.50;53.10;;;;;;5027115;28;20498;-53
2023/11/07 10:53:31;;;;;;;2.77;0.93;;;15.60;52.80;;;;;;5025438;28;20453;-51
2023/11/07 10:56:00;;;;;;;0.70;0.70;;;15.50;52.80;;;;;;5029271;28;20458;-50
2023/11/07 10:58:32;;;;;;;0.87;0.67;;;15.40;52.20;;;;;;5031124;28;20538;-54
2023/11/07 11:01:02;;;;;;;0.73;0.70;;;15.10;52.00;;;;;;5034387;28;20440;-55
2023/11/07 11:03:29;;;;;;;2.90;0.70;;;14.90;52.50;;;;;;5038130;28;20530;-53
2023/11/07 11:05:54;;;;;;;1.17;0.60;;;15.10;52.60;;;;;;5031394;28;20443;-56
2023/11/07 11:08:23;;;;;;;0.97;0.87;;;14.90;52.70;;;;;;5030730;28;20545;-55
2023/11/07 11:10:52;;;;;;;0.90;0.70;;;14.90;52.90;;;;;;5032010;28;20229;-52
2023/11/07 11:13:24;;;;;;;0.67;0.60;;;15.00;52.90;;;;;;5035268;28;20490;-55
2023/11/07 11:15:53;;;;;;;1.07;0.80;;;15.00;53.40;;;;;;5030370;28;20436;-54
2023/11/07 11:18:27;;;;;;;1.57;0.67;;;15.00;53.80;;;;;;5031329;28;20471;-54
2023/11/07 11:21:16;;;;;;;0.97;0.70;;;14.90;54.20;;;;;;5030818;28;20862;-55
2023/11/07 11:24:02;;;;;;;0.60;0.53;;;14.90;54.90;;;;;;5037169;28;20514;-54
2023/11/07 11:26:48;;;;;;;0.60;0.60;;;15.00;56.90;;;;;;5035870;28;20446;-53
2023/11/07 11:29:27;;;;;;;2.10;1.10;;;15.10;56.90;;;;;;5031399;28;20501;-55
2023/11/07 11:31:54;;;;;;;1.07;0.80;;;15.20;58.00;;;;;;5021693;28;20683;-55
2023/11/07 11:34:24;;;;;;;0.83;0.80;;;15.20;57.90;;;;;;5029572;28;20435;-55
2023/11/07 11:37:00;;;;;;;0.87;0.70;;;15.10;58.30;;;;;;5026107;28;20627;-56
2023/11/07 11:39:36;;;;;;;1.73;0.60;;;15.30;58.60;;;;;;5026774;28;20452;-55
2023/11/07 11:42:09;;;;;;;1.57;0.77;;;15.40;58.70;;;;;;5032504;28;20534;-54
2023/11/07 11:44:35;;;;;;;1.90;0.70;;;15.50;58.80;;;;;;5026271;28;20506;-55
2023/11/07 11:47:03;;;;;;;1.83;0.77;;;15.50;59.00;;;;;;5031737;28;20455;-54
2023/11/07 11:49:28;;;;;;;1.60;1.00;;;15.50;59.00;;;;;;5040431;28;20443;-57
2023/11/07 11:51:54;;;;;;;2.03;1.00;;;15.60;59.00;;;;;;5032361;28;20581;-56
2023/11/07 11:54:26;;;;;;;1.20;1.10;;;15.60;59.60;;;;;;5035292;28;20181;-57
2023/11/07 11:56:51;;;;;;;0.90;0.80;;;15.60;60.00;;;;;;5029650;28;20696;-54
2023/11/07 11:59:25;;;;;;;0.73;0.70;;;15.60;60.30;;;;;;5029418;28;20464;-57
2023/11/07 12:02:00;;;;;;;1.30;1.20;;;15.60;60.10;;;;;;5023084;28;20189;-51
2023/11/07 12:04:32;;;;;;;1.20;1.10;;;15.60;59.80;;;;;;5026517;28;20444;-52
2023/11/07 12:07:07;;;;;;;3.17;1.00;;;15.60;59.90;;;;;;5032112;28;20443;-54
2023/11/07 12:09:56;;;;;;;2.00;1.03;;;15.80;60.10;;;;;;5039022;28;20454;-53
2023/11/07 12:12:21;;;;;;;1.23;1.13;;;15.70;59.40;;;;;;5035643;28;20435;-53
2023/11/07 12:15:02;;;;;;;1.37;0.93;;;15.80;59.20;;;;;;5032799;28;20440;-52
2023/11/07 12:17:40;;;;;;;1.10;0.93;;;15.70;59.70;;;;;;5029363;28;20193;-52
2023/11/07 12:20:08;;;;;;;1.03;0.77;;;15.70;59.40;;;;;;5028448;28;20967;-52
2023/11/07 12:22:35;;;;;;;1.50;1.00;;;15.70;59.40;;;;;;5041944;28;20443;-55
2023/11/07 12:25:13;;;;;;;1.00;0.80;;;15.80;60.20;;;;;;5030321;28;20447;-53
2023/11/07 12:27:40;;;;;;;1.20;0.90;;;15.70;59.20;;;;;;5030990;28;20520;-52
2023/11/07 12:30:16;;;;;;;1.20;0.80;;;15.80;59.50;;;;;;5025617;28;20472;-54
2023/11/07 12:32:43;;;;;;;1.73;1.00;;;15.80;59.50;;;;;;5029755;28;20436;-52
2023/11/07 12:35:23;;;;;;;2.80;0.90;;;15.80;59.20;;;;;;5032629;28;20538;-53
2023/11/07 12:37:50;;;;;;;1.47;1.10;;;15.90;58.80;;;;;;5026968;28;20466;-52
2023/11/07 12:40:16;;;;;;;1.27;1.10;;;16.00;59.20;;;;;;5033898;28;20489;-54
2023/11/07 12:42:53;;;;;;;1.57;1.10;;;16.00;59.10;;;;;;5036704;28;20436;-54
2023/11/07 12:45:33;;;;;;;1.17;1.07;;;16.00;59.10;;;;;;5035188;28;20556;-51
2023/11/07 12:48:04;;;;;;;1.43;0.97;;;16.20;59.30;;;;;;5028675;28;20451;-51